weather.gov     
National Weather Service

Terminal Aerodrome Forecast
NWS Homepage
This page is being discontinued on March 12, 2014.
The same data is available at this site. Please update your bookmarks.
Thank you, and we apologize for the inconvenience.
Please send an email to SR-SRH.Webmaster@noaa.gov with any concerns.


Current Version
Previous Version:    01  02  03  04  05  06  07  08  09  10  11  12  13  14  15  16  17  18  19  20  21  22  23  24  25  26  27  28  29  30  
   31  
[Printable]
686
FTUS44 KLZK 010500
TAFLLQ
TAF
KLLQ 010538Z 0106/0206 06003KT 6SM BR SCT070 OVC150
      TEMPO 0106/0109 4SM BR OVC050
     FM010900 06003KT 3SM BR SCT010 OVC025
      TEMPO 0109/0113 1SM BR BKN005
     FM011500 08005KT P6SM SCT025 OVC040
     FM020000 07003KT P6SM OVC050=


U.S. Dept. of Commerce
NOAA National Weather Service
1325 East West Highway
Silver Spring, MD 20910
E-mail: w-nws.webmaster@noaa.gov
Page last modified: May 16, 2007
NATIONAL WEATHER SERVICE: for Safety, for Work, for Fun - FOR LIFE